

Wyoming Mesonet
Water Resources Data System and State Climate Office
SEO WACNet, UW USACE UMRB, USDA-ARS, BLM
| Wind | Soil | |||||||||||||||||||
| Temp | Precip | Speed | Dir | Gust | Dir | Humidity | Pressure | Solar | Snow | Temperature (Deg F) | Moisture (%) | |||||||||
| Date Time (MST) | (F) | (in) | (mph) | (deg) | (mph) | (deg) | (%) | (Mbars) | (w/m^2) | (in) | 5cm | 10cm | 20cm | 50cm | 1m | 5cm | 10cm | 20cm | 50cm | 1m |
| 2026-08-30 00:00:00 | 67.71 | 0.00 | 2.32 | 260 | 7.83 | 295 | 50.0 | 839.0 | 0.0 | 0.0 | 69.44 | 73.94 | 74.66 | 71.96 | 69.44 | 6.7% | 11.2% | 23.0% | 30.9% | 25.3% |
| 2026-08-30 01:00:00 | 62.73 | 0.00 | 1.76 | 278 | 8.69 | 238 | 47.6 | 840.0 | 0.0 | 0.0 | 68.36 | 73.04 | 74.30 | 71.96 | 69.44 | 6.6% | 11.0% | 22.9% | 30.9% | 25.4% |
| 2026-08-30 02:00:00 | 66.79 | 0.00 | 1.45 | 332 | 6.58 | 337 | 50.5 | 839.0 | 0.0 | 0.0 | 67.28 | 72.14 | 74.30 | 71.96 | 69.44 | 6.5% | 10.9% | 22.9% | 30.9% | 25.5% |
| 2026-08-30 03:00:00 | 61.52 | 0.00 | 5.23 | 315 | 6.21 | 316 | 64.2 | 839.0 | 0.0 | 0.0 | 66.74 | 71.60 | 73.94 | 71.96 | 69.44 | 6.5% | 10.9% | 23.0% | 30.8% | 25.4% |
| 2026-08-30 04:00:00 | 65.26 | 0.00 | 0.60 | 353 | 4.97 | 311 | 59.2 | 839.0 | 0.0 | 0.0 | 66.20 | 70.70 | 73.76 | 71.96 | 69.44 | 6.4% | 10.6% | 23.1% | 30.9% | 25.4% |
| 2026-08-30 05:00:00 | 63.25 | 0.00 | 1.26 | 213 | 8.69 | 225 | 64.8 | 839.0 | 0.0 | 0.0 | 65.84 | 70.34 | 73.58 | 72.14 | 69.44 | 6.4% | 10.4% | 23.0% | 30.9% | 25.4% |
| 2026-08-30 06:00:00 | 63.57 | 0.00 | 2.59 | 219 | 10.56 | 213 | 61.2 | 840.0 | 26.8 | 0.0 | 65.30 | 69.80 | 73.22 | 72.14 | 69.44 | 6.3% | 10.4% | 23.0% | 30.9% | 25.4% |
| 2026-08-30 07:00:00 | 67.82 | 0.00 | 1.77 | 196 | 6.96 | 223 | 53.7 | 840.0 | 322.5 | 0.0 | 64.94 | 69.26 | 73.04 | 71.96 | 69.44 | 6.3% | 10.3% | 23.0% | 30.7% | 25.6% |
| 2026-08-30 08:00:00 | 72.41 | 0.00 | 5.11 | 155 | 8.57 | 162 | 43.6 | 840.0 | 561.3 | 0.2 | 66.38 | 68.90 | 72.68 | 71.96 | 69.44 | 6.4% | 10.3% | 22.9% | 30.8% | 25.5% |
| 2026-08-30 09:00:00 | 71.71 | 0.00 | 8.95 | 350 | 16.03 | 10 | 47.8 | 840.0 | 570.1 | 0.1 | 69.44 | 69.08 | 72.50 | 71.96 | 69.44 | 6.6% | 10.3% | 22.9% | 30.9% | 25.4% |
| 2026-08-30 10:00:00 | 77.99 | 0.00 | 5.54 | 54 | 12.05 | 38 | 39.6 | 840.0 | 821.0 | 0.2 | 72.68 | 69.80 | 72.14 | 71.96 | 69.44 | 6.9% | 10.5% | 23.0% | 30.8% | 25.6% |
| 2026-08-30 11:00:00 | 77.47 | 0.00 | 11.61 | 338 | 27.58 | 293 | 35.8 | 840.0 | 1053.0 | 0.3 | 77.72 | 71.24 | 71.96 | 71.96 | 69.44 | 7.5% | 10.7% | 23.0% | 30.8% | 25.5% |
| 2026-08-30 12:00:00 | 73.67 | 0.00 | 15.38 | 249 | 31.92 | 238 | 24.4 | 840.0 | 134.0 | 0.0 | 79.16 | 73.04 | 71.96 | 71.96 | 69.44 | 7.6% | 11.1% | 22.9% | 30.9% | 25.5% |
| 2026-08-30 13:00:00 | 59.16 | 0.00 | 22.21 | 357 | 36.15 | 351 | 63.1 | 842.0 | 78.8 | 0.0 | 77.18 | 74.48 | 72.14 | 71.78 | 69.44 | 7.6% | 11.3% | 23.0% | 30.9% | 25.4% |
| 2026-08-30 14:00:00 | 67.21 | 0.00 | 17.46 | 354 | 26.96 | 354 | 52.4 | 841.0 | 945.0 | 0.0 | 75.38 | 74.66 | 72.32 | 71.78 | 69.44 | 7.3% | 11.3% | 23.0% | 30.9% | 25.4% |
| 2026-08-30 15:00:00 | 67.78 | 0.00 | 13.11 | 23 | 21.25 | 346 | 48.0 | 841.0 | 705.6 | 0.0 | 77.54 | 74.66 | 72.68 | 71.78 | 69.26 | 7.5% | 11.4% | 23.0% | 30.8% | 25.4% |
| 2026-08-30 16:00:00 | 68.18 | 0.00 | 5.69 | 61 | 22.62 | 24 | 44.8 | 841.0 | 499.5 | 0.0 | 80.06 | 75.02 | 72.86 | 71.78 | 69.26 | 7.7% | 11.5% | 23.0% | 30.9% | 25.4% |
| 2026-08-30 17:00:00 | 68.88 | 0.00 | 10.49 | 9 | 18.39 | 11 | 43.9 | 841.0 | 309.9 | 0.0 | 80.96 | 75.92 | 73.04 | 71.78 | 69.26 | 7.7% | 11.7% | 23.0% | 30.7% | 25.5% |
| 2026-08-30 18:00:00 | 67.33 | 0.00 | 8.19 | 4 | 17.02 | 5 | 45.6 | 842.0 | 120.9 | 0.0 | 79.70 | 76.46 | 73.22 | 71.60 | 69.44 | 7.6% | 11.7% | 23.0% | 30.8% | 25.4% |
| 2026-08-30 19:00:00 | 61.93 | 0.00 | 8.20 | 31 | 11.43 | 18 | 55.6 | 842.0 | 0.0 | 0.0 | 77.18 | 76.46 | 73.40 | 71.60 | 69.44 | 7.3% | 11.7% | 22.9% | 30.7% | 25.5% |
| 2026-08-30 20:00:00 | 57.43 | 0.00 | 10.07 | 339 | 11.93 | 349 | 62.2 | 843.0 | 0.0 | 0.0 | 74.30 | 75.92 | 73.58 | 71.60 | 69.44 | 7.0% | 11.6% | 23.0% | 30.9% | 25.4% |
| 2026-08-30 21:00:00 | 56.91 | 0.00 | 10.88 | 326 | 13.17 | 329 | 64.1 | 843.0 | 0.0 | 0.0 | 71.78 | 75.02 | 73.76 | 71.78 | 69.44 | 6.7% | 11.4% | 22.9% | 30.7% | 25.4% |
| 2026-08-30 22:00:00 | 53.02 | 0.00 | 6.25 | 341 | 10.93 | 333 | 71.1 | 843.0 | 0.0 | 0.0 | 69.80 | 74.12 | 73.76 | 71.60 | 69.26 | 6.6% | 11.2% | 23.0% | 30.8% | 25.3% |
| 2026-08-30 23:00:00 | 54.81 | 0.00 | 3.40 | 320 | 8.08 | 340 | 63.8 | 843.0 | 0.0 | 0.0 | 68.00 | 73.04 | 73.76 | 71.60 | 69.44 | 6.4% | 11.0% | 23.0% | 30.7% | 25.2% |